Barnaul, Russia
Current Conditions -  °F | °C
As of 9:00 AM on Wednesday 22 Oct 2014 (Local Time) from UNBB Reporting Station
Clear Clear  
Wind Chill: 21°   Ceiling: Unl
Heat Index: 30°   Visibility: 6mi
Dew Point: 21°   Wind: 11mph
Humidity: 69%   Direction: 200°SSW
Pressure: 30.21"   Gusts: NA
Location:  53.36°N, 83.75°E
Report Text: UNBB 220200Z 20005MPS CAVOK M01/M06 Q1023 NOSIG RMK QFE744/099324CLRD66
Loading
Personal Weather Stations






























Interactive Weather Map
Tropical Storm Tracking
New forecast layout! Learn more

10-Day Weather Forecast

Advertisements
Track Severe Weather on mobile